KCON/CON METAR and TAF weather

Enter ICAO airport designator
Station Type Date Time Source
KCON METAR 2018/04/23 10:51 UTC NOAA

KCON 231051Z AUTO 00000KT 10SM CLR M01/M04 A3049 RMK AO2 SLP327 T10061044


Station Type Date Time Source
KCON Decoded METAR 2018/04/23 10:51 UTC NOAA

Concord, Concord Municipal Airport, NH, United States (KCON) 43-11-43N 071-30-04W 103M
Apr 23, 2018 - 06:51 AM EDT / 2018.04.23 1051 UTC
Wind: Calm:0
Visibility: 10 mile(s):0
Sky conditions: clear
Temperature: 30.9 F (-0.6 C)
Dew Point: 24.1 F (-4.4 C)
Relative Humidity: 75%
Pressure (altimeter): 30.49 in. Hg (1032 hPa)
ob: KCON 231051Z AUTO 00000KT 10SM CLR M01/M04 A3049 RMK AO2 SLP327 T10061044
cycle: 11

Station Type Date Time Source
KCON TAF 2018/04/23 12:22 UTC NOAA

TAF KCON 231120Z 2312/2412 00000KT P6SM SKC
FM231600 21005KT P6SM SKC


Example: see airport list